createdAt,value
2023-02-11T00:01:01.328Z,2.22
2023-02-11T00:03:29.027Z,2.45
2023-02-11T00:06:00.630Z,3.97
2023-02-11T00:08:28.447Z,3.10
2023-02-11T00:10:56.684Z,4.40
2023-02-11T00:13:24.417Z,3.55
2023-02-11T00:15:52.284Z,4.60
2023-02-11T00:18:20.324Z,4.53
2023-02-11T00:20:48.028Z,4.05
2023-02-11T00:23:15.866Z,4.60
2023-02-11T00:25:43.847Z,3.28
2023-02-11T00:28:11.894Z,6.05
2023-02-11T00:30:39.848Z,10.00
2023-02-11T00:33:07.629Z,7.00
2023-02-11T00:35:38.812Z,6.63
2023-02-11T00:38:06.551Z,4.30
2023-02-11T00:40:34.434Z,4.80
2023-02-11T00:43:02.176Z,3.60
2023-02-11T00:45:30.878Z,3.22
2023-02-11T00:47:58.599Z,4.03
2023-02-11T00:50:26.288Z,2.58
2023-02-11T00:52:53.976Z,3.83
2023-02-11T00:55:21.739Z,3.63
2023-02-11T00:57:49.504Z,3.20
2023-02-11T01:00:17.438Z,3.47
2023-02-11T01:02:45.154Z,3.58
2023-02-11T01:05:12.900Z,3.67
2023-02-11T01:07:40.617Z,3.10
2023-02-11T01:10:08.471Z,3.70
2023-02-11T01:12:36.665Z,3.07
2023-02-11T01:15:04.773Z,3.58
2023-02-11T01:17:32.534Z,3.70
2023-02-11T01:20:00.303Z,3.38
2023-02-11T01:22:28.059Z,4.17
2023-02-11T01:24:55.827Z,4.30
2023-02-11T01:27:23.654Z,3.30
2023-02-11T01:29:52.438Z,4.07
2023-02-11T01:32:20.179Z,3.95
2023-02-11T01:34:47.920Z,4.10
2023-02-11T01:37:15.591Z,3.90
2023-02-11T01:39:46.376Z,3.95
2023-02-11T01:42:17.867Z,4.47
2023-02-11T01:44:45.676Z,4.13
2023-02-11T01:47:13.476Z,5.00
2023-02-11T01:49:43.020Z,4.47
2023-02-11T01:52:10.821Z,4.50
2023-02-11T01:55:01.493Z,4.50
2023-02-11T01:57:30.396Z,5.55
2023-02-11T02:00:00.630Z,5.38
2023-02-11T02:02:34.036Z,6.00
2023-02-11T02:05:04.080Z,5.13
2023-02-11T02:07:37.559Z,6.47
2023-02-11T02:10:07.316Z,5.22
2023-02-11T02:12:35.025Z,4.87
2023-02-11T02:15:21.456Z,5.15
2023-02-11T02:17:59.228Z,5.13
2023-02-11T02:20:46.016Z,5.47
2023-02-11T02:23:30.043Z,5.78
2023-02-11T02:26:00.965Z,6.00
2023-02-11T02:28:37.802Z,6.53
2023-02-11T02:31:05.650Z,6.15
2023-02-11T02:33:39.475Z,6.72
2023-02-11T02:36:10.254Z,5.95
2023-02-11T02:38:38.008Z,6.77
2023-02-11T02:41:09.601Z,5.40
2023-02-11T02:43:38.142Z,5.78
2023-02-11T02:46:26.204Z,6.37
2023-02-11T02:48:54.397Z,6.13
2023-02-11T02:51:28.048Z,5.97
2023-02-11T02:54:04.610Z,7.30
2023-02-11T02:56:39.021Z,6.78
2023-02-11T02:59:25.595Z,6.50
2023-02-11T03:02:12.009Z,7.82
2023-02-11T03:04:58.017Z,7.13
2023-02-11T03:07:30.345Z,7.25
2023-02-11T03:10:03.506Z,8.18
2023-02-11T03:12:32.151Z,7.37
2023-02-11T03:14:59.941Z,7.40
2023-02-11T03:17:27.679Z,7.80
2023-02-11T03:19:55.618Z,6.30
2023-02-11T03:22:24.095Z,7.72
2023-02-11T03:24:53.041Z,6.32
2023-02-11T03:27:33.875Z,6.43
2023-02-11T03:30:20.403Z,6.30
2023-02-11T03:32:59.310Z,7.00
2023-02-11T03:35:33.570Z,7.05
2023-02-11T03:38:02.090Z,6.63
2023-02-11T03:40:32.184Z,6.70
2023-02-11T03:42:59.909Z,7.35
2023-02-11T03:45:28.451Z,6.77
2023-02-11T03:47:58.334Z,6.63
2023-02-11T03:50:26.194Z,5.95
2023-02-11T03:52:54.123Z,5.97
2023-02-11T03:55:21.956Z,6.90
2023-02-11T03:57:49.747Z,6.35
2023-02-11T04:00:17.628Z,6.20
2023-02-11T04:02:45.524Z,6.60
2023-02-11T04:05:14.538Z,5.80
2023-02-11T04:07:42.374Z,6.78
2023-02-11T04:10:10.257Z,6.77
2023-02-11T04:12:38.063Z,6.32
2023-02-11T04:15:06.098Z,5.97
2023-02-11T04:17:33.921Z,6.30
2023-02-11T04:20:01.768Z,5.87
2023-02-11T04:22:33.545Z,7.28
2023-02-11T04:25:02.353Z,6.35
2023-02-11T04:27:30.077Z,6.37
2023-02-11T04:29:57.954Z,6.22
2023-02-11T04:32:25.649Z,6.13
2023-02-11T04:34:54.494Z,7.00
2023-02-11T04:37:22.221Z,6.50
2023-02-11T04:39:50.066Z,6.63
2023-02-11T04:42:17.827Z,6.53
2023-02-11T04:44:45.639Z,7.20
2023-02-11T04:47:15.433Z,6.38
2023-02-11T04:49:43.385Z,6.18
2023-02-11T04:52:11.196Z,6.53
2023-02-11T04:54:40.042Z,5.80
2023-02-11T04:57:07.784Z,6.15
2023-02-11T04:59:36.597Z,5.10
2023-02-11T05:02:04.452Z,6.47
2023-02-11T05:04:32.261Z,5.40
2023-02-11T05:07:00.055Z,5.57
2023-02-11T05:09:27.856Z,5.57
2023-02-11T05:11:55.651Z,5.13
2023-02-11T05:14:23.411Z,5.60
2023-02-11T05:16:51.151Z,4.83
2023-02-11T05:19:19.039Z,5.80
2023-02-11T05:22:01.359Z,6.00
2023-02-11T05:24:29.725Z,6.10
2023-02-11T05:26:57.412Z,5.63
2023-02-11T05:29:25.232Z,5.68
2023-02-11T05:31:53.014Z,4.78
2023-02-11T05:34:20.823Z,5.37
2023-02-11T05:36:48.609Z,4.85
2023-02-11T05:39:16.577Z,4.60
2023-02-11T05:41:44.403Z,4.97
2023-02-11T05:44:12.267Z,5.38
2023-02-11T05:46:40.168Z,4.57
2023-02-11T05:49:09.243Z,4.20
2023-02-11T05:51:40.024Z,4.85
2023-02-11T05:54:07.726Z,4.75
2023-02-11T05:56:36.359Z,4.97
2023-02-11T05:59:04.121Z,5.43
2023-02-11T06:01:31.814Z,5.45
2023-02-11T06:03:59.699Z,6.75
2023-02-11T06:06:27.644Z,5.57
2023-02-11T06:08:56.568Z,5.05
2023-02-11T06:11:24.294Z,5.35
2023-02-11T06:13:52.161Z,5.77
2023-02-11T06:16:21.206Z,5.38
2023-02-11T06:18:49.063Z,5.45
2023-02-11T06:21:16.857Z,5.38
2023-02-11T06:23:44.628Z,5.03
2023-02-11T06:26:16.768Z,4.85
2023-02-11T06:28:44.490Z,5.07
2023-02-11T06:31:12.421Z,5.60
2023-02-11T06:33:40.306Z,5.00
2023-02-11T06:36:12.845Z,5.05
2023-02-11T06:38:40.708Z,5.37
2023-02-11T06:41:10.385Z,4.03
2023-02-11T06:43:38.079Z,4.55
2023-02-11T06:46:05.882Z,5.18
2023-02-11T06:48:33.688Z,4.30
2023-02-11T06:51:05.212Z,4.90
2023-02-11T06:53:33.350Z,4.43
2023-02-11T06:56:07.989Z,4.77
2023-02-11T06:58:35.882Z,4.82
2023-02-11T07:01:07.026Z,5.35
2023-02-11T07:03:36.713Z,5.13
2023-02-11T07:06:05.745Z,5.20
2023-02-11T07:08:37.742Z,5.40
2023-02-11T07:11:15.382Z,5.85
2023-02-11T07:13:43.282Z,4.70
2023-02-11T07:16:13.240Z,5.28
2023-02-11T07:18:41.026Z,5.07
2023-02-11T07:21:10.255Z,6.03
2023-02-11T07:23:38.076Z,5.32
2023-02-11T07:26:09.506Z,4.93
2023-02-11T07:28:39.870Z,5.37
2023-02-11T07:31:11.005Z,5.07
2023-02-11T07:33:39.063Z,5.07
2023-02-11T07:36:07.547Z,4.97
2023-02-11T07:38:36.722Z,4.87
2023-02-11T07:41:05.163Z,5.80
2023-02-11T07:43:33.066Z,4.68
2023-02-11T07:46:01.131Z,4.97
2023-02-11T07:48:29.246Z,5.53
2023-02-11T07:50:57.161Z,5.82
2023-02-11T07:53:26.286Z,6.30
2023-02-11T07:55:54.019Z,5.72
2023-02-11T07:58:21.926Z,5.32
2023-02-11T08:00:49.629Z,5.47
2023-02-11T08:03:17.818Z,5.00
2023-02-11T08:05:45.638Z,4.47
2023-02-11T08:08:13.591Z,4.88
2023-02-11T08:10:41.401Z,3.97
2023-02-11T08:13:09.125Z,4.47
2023-02-11T08:15:36.899Z,3.97
2023-02-11T08:18:04.755Z,4.67
2023-02-11T08:20:32.519Z,4.43
2023-02-11T08:23:00.229Z,4.50
2023-02-11T08:25:27.980Z,5.85
2023-02-11T08:27:55.797Z,3.60
2023-02-11T08:30:26.365Z,3.85
2023-02-11T08:32:55.098Z,3.35
2023-02-11T08:35:22.916Z,3.60
2023-02-11T08:37:50.670Z,4.03
2023-02-11T08:40:18.578Z,3.65
2023-02-11T08:42:46.315Z,3.80
2023-02-11T08:45:16.647Z,4.05
2023-02-11T08:47:44.439Z,3.58
2023-02-11T08:50:13.311Z,3.28
2023-02-11T08:52:41.137Z,3.73
2023-02-11T08:55:09.001Z,3.95
2023-02-11T08:57:36.756Z,4.63
2023-02-11T09:00:04.739Z,3.57
2023-02-11T09:02:32.547Z,3.15
2023-02-11T09:05:00.515Z,3.55
2023-02-11T09:07:29.138Z,5.70
2023-02-11T09:09:57.032Z,9.02
2023-02-11T09:12:24.758Z,5.07
2023-02-11T09:14:52.783Z,5.13
2023-02-11T09:17:20.473Z,7.10
2023-02-11T09:19:48.283Z,6.45
2023-02-11T09:22:15.969Z,4.70
2023-02-11T09:24:43.719Z,4.17
2023-02-11T09:27:11.395Z,3.10
2023-02-11T09:29:39.296Z,4.18
2023-02-11T09:32:09.727Z,3.70
2023-02-11T09:34:37.766Z,4.95
2023-02-11T09:37:05.454Z,4.65
2023-02-11T09:39:33.290Z,4.35
2023-02-11T09:42:19.804Z,4.63
2023-02-11T09:44:47.739Z,5.30
2023-02-11T09:47:24.461Z,4.63
2023-02-11T09:49:52.886Z,4.60
2023-02-11T09:52:24.290Z,4.28
2023-02-11T09:54:59.535Z,5.18
2023-02-11T09:57:29.303Z,4.87
2023-02-11T09:59:57.987Z,3.28
2023-02-11T10:02:28.715Z,3.38
2023-02-11T10:05:13.804Z,2.85
2023-02-11T10:07:41.556Z,4.73
2023-02-11T11:17:48.082Z,2.13
2023-02-11T11:20:36.702Z,4.15
2023-02-11T11:23:24.635Z,2.70
2023-02-11T11:26:13.682Z,1.83
2023-02-11T11:29:02.586Z,3.75
2023-02-11T11:31:57.047Z,3.20
2023-02-11T11:34:47.290Z,2.43
2023-02-11T11:37:39.497Z,2.42
2023-02-11T11:40:34.334Z,2.38
2023-02-11T11:43:24.020Z,2.73
2023-02-11T11:46:12.384Z,2.13
2023-02-11T11:49:38.921Z,6.03
2023-02-11T11:52:36.642Z,3.05
2023-02-11T11:55:47.379Z,2.10
2023-02-11T11:58:35.453Z,2.47
2023-02-11T12:01:36.385Z,1.80
2023-02-11T12:04:47.518Z,2.83
2023-02-11T12:07:39.033Z,1.60
2023-02-11T12:10:35.709Z,1.77
2023-02-11T12:13:23.557Z,2.17
2023-02-11T12:16:11.515Z,1.63
2023-02-11T12:19:05.255Z,1.90
2023-02-11T12:22:05.624Z,2.30
2023-02-11T12:25:03.391Z,2.17
2023-02-11T12:28:00.565Z,2.17
2023-02-11T12:31:10.872Z,1.83
2023-02-11T12:34:02.852Z,1.97
2023-02-11T12:36:55.383Z,2.13
2023-02-11T12:39:53.024Z,1.77
2023-02-11T12:43:18.460Z,2.57
2023-02-11T12:46:21.896Z,2.53
2023-02-11T12:49:09.935Z,1.70
2023-02-11T12:52:02.490Z,2.10
2023-02-11T12:54:54.194Z,2.10
2023-02-11T12:57:42.229Z,1.83
2023-02-11T13:00:51.168Z,1.73
2023-02-11T13:03:40.600Z,1.60
2023-02-11T13:07:02.469Z,2.50
2023-02-11T13:09:52.583Z,1.30
2023-02-11T13:12:58.846Z,1.87
2023-02-11T13:15:51.560Z,1.50
2023-02-11T13:18:50.862Z,1.70
2023-02-11T13:21:41.585Z,1.70
2023-02-11T13:24:35.668Z,2.03
2023-02-11T13:27:42.891Z,1.98
2023-02-11T13:30:37.074Z,2.55
2023-02-11T13:33:34.729Z,1.37
2023-02-11T13:36:26.201Z,1.58
2023-02-11T13:39:20.373Z,2.13
2023-02-11T13:42:13.059Z,1.67
2023-02-11T13:45:01.206Z,1.52
2023-02-11T13:47:51.736Z,2.00
2023-02-11T13:50:40.703Z,1.23
2023-02-11T13:53:28.557Z,2.13
2023-02-11T13:56:29.353Z,1.45
2023-02-11T13:59:26.731Z,1.60
2023-02-11T14:02:42.282Z,1.40
2023-02-11T14:05:51.743Z,1.58
2023-02-11T14:08:58.596Z,2.47
2023-02-11T14:11:46.815Z,1.30
2023-02-11T14:14:36.234Z,1.23
2023-02-11T14:17:31.276Z,1.90
2023-02-11T14:20:36.008Z,1.45
2023-02-11T14:23:25.783Z,1.40
2023-02-11T14:26:22.946Z,2.17
2023-02-11T14:29:31.184Z,1.67
2023-02-11T14:32:21.988Z,1.87
2023-02-11T14:35:15.843Z,2.22
2023-02-11T14:38:06.657Z,1.33
2023-02-11T14:41:13.394Z,1.73
2023-02-11T14:44:21.859Z,2.00
2023-02-11T14:47:12.469Z,1.85
2023-02-11T14:50:00.313Z,3.78
2023-02-11T14:52:48.268Z,1.47
2023-02-11T14:55:39.672Z,1.60
2023-02-11T14:58:31.047Z,1.85
2023-02-11T15:01:37.844Z,1.97
2023-02-11T15:04:36.571Z,1.27
2023-02-11T15:07:24.503Z,2.30
2023-02-11T15:10:16.909Z,1.80
2023-02-11T15:13:04.871Z,1.90
2023-02-11T15:15:52.839Z,1.25
2023-02-11T15:18:42.313Z,2.13
2023-02-11T15:21:31.060Z,1.43
2023-02-11T15:24:26.868Z,1.67
2023-02-11T15:27:16.348Z,1.33
2023-02-11T15:30:04.402Z,1.23
2023-02-11T15:32:58.186Z,1.95
2023-02-11T15:35:46.112Z,2.10
2023-02-11T15:38:34.055Z,2.07
2023-02-11T15:41:43.026Z,1.55
2023-02-11T15:44:31.879Z,2.00
2023-02-11T15:47:20.754Z,2.25
2023-02-11T15:50:08.872Z,1.47
2023-02-11T15:52:57.432Z,1.70
2023-02-11T15:55:48.876Z,1.98
2023-02-11T15:58:38.038Z,2.00
2023-02-11T16:01:45.630Z,2.53
2023-02-11T16:04:33.744Z,3.13
2023-02-11T16:07:40.724Z,2.47
2023-02-11T16:10:33.527Z,2.70
2023-02-11T16:13:21.736Z,2.53
2023-02-11T16:16:18.411Z,3.38
2023-02-11T16:19:02.150Z,2.00
2023-02-11T16:21:39.396Z,2.78
2023-02-11T16:24:08.110Z,2.27
2023-02-11T16:26:37.338Z,2.70
2023-02-11T16:29:09.345Z,2.17
2023-02-11T16:31:37.649Z,2.10
2023-02-11T16:34:25.697Z,3.22
2023-02-11T16:36:53.551Z,2.37
2023-02-11T16:39:24.599Z,2.70
2023-02-11T16:41:52.597Z,1.40
2023-02-11T16:44:20.337Z,3.35
2023-02-11T16:46:48.182Z,2.20
2023-02-11T16:49:17.880Z,2.00
2023-02-11T16:51:49.113Z,3.13
2023-02-11T16:54:17.052Z,2.10
2023-02-11T16:56:44.880Z,1.55
2023-02-11T16:59:12.846Z,1.77
2023-02-11T17:01:40.854Z,1.83
2023-02-11T17:04:08.689Z,1.98
2023-02-11T17:06:36.443Z,1.80
2023-02-11T17:09:06.673Z,1.70
2023-02-11T17:11:34.358Z,2.13
2023-02-11T17:14:02.141Z,2.28
2023-02-11T17:16:30.628Z,3.10
2023-02-11T17:18:58.561Z,1.77
2023-02-11T17:21:29.841Z,2.03
2023-02-11T17:23:58.021Z,1.50
2023-02-11T17:26:25.754Z,1.50
2023-02-11T17:28:53.954Z,1.42
2023-02-11T17:31:22.186Z,1.83
2023-02-11T17:33:49.947Z,1.95
2023-02-11T17:36:17.706Z,1.83
2023-02-11T17:38:45.679Z,1.67
2023-02-11T17:41:13.417Z,2.75
2023-02-11T17:43:41.145Z,2.60
2023-02-11T17:46:10.207Z,2.58
2023-02-11T17:48:38.792Z,1.95
2023-02-11T17:51:09.598Z,2.30
2023-02-11T17:53:37.372Z,2.85
2023-02-11T17:56:07.417Z,3.55
2023-02-11T17:58:35.276Z,3.03
2023-02-11T18:01:03.105Z,2.13
2023-02-11T18:03:31.174Z,3.00
2023-02-11T18:06:02.214Z,2.00
2023-02-11T18:08:30.124Z,2.90
2023-02-11T18:10:57.935Z,1.98
2023-02-11T18:13:25.821Z,2.30
2023-02-11T18:15:53.970Z,3.67
2023-02-11T18:18:22.061Z,1.85
2023-02-11T18:21:04.810Z,1.77
2023-02-11T18:23:32.749Z,2.05
2023-02-11T18:26:03.071Z,2.70
2023-02-11T18:28:30.965Z,3.25
2023-02-11T18:31:02.059Z,3.67
2023-02-11T18:33:30.138Z,2.77
2023-02-11T18:35:58.184Z,2.28
2023-02-11T18:38:29.093Z,2.15
2023-02-11T18:40:59.514Z,2.13
2023-02-11T18:43:31.781Z,2.33
2023-02-11T18:45:59.572Z,3.63
2023-02-11T18:48:27.518Z,2.13
2023-02-11T18:50:55.541Z,2.90
2023-02-11T18:53:24.763Z,3.08
2023-02-11T18:55:53.256Z,2.78
2023-02-11T18:58:24.156Z,2.40
2023-02-11T19:00:52.003Z,2.70
2023-02-11T19:03:22.789Z,2.45
2023-02-11T19:05:51.052Z,2.43
2023-02-11T19:08:19.241Z,3.47
2023-02-11T19:10:47.511Z,3.10
2023-02-11T19:13:15.344Z,2.92
2023-02-11T19:15:43.473Z,3.73
2023-02-11T19:18:11.383Z,3.97
2023-02-11T19:20:45.001Z,3.63
2023-02-11T19:23:12.916Z,3.63
2023-02-11T19:25:45.565Z,3.85
2023-02-11T19:28:13.536Z,3.00
2023-02-11T19:30:45.632Z,2.50
2023-02-11T19:33:16.593Z,3.42
2023-02-11T19:35:44.423Z,4.78
2023-02-11T19:38:13.838Z,4.78
2023-02-11T19:40:42.096Z,3.40
2023-02-11T19:43:10.091Z,3.63
2023-02-11T19:45:38.816Z,2.10
2023-02-11T19:48:08.985Z,1.50
2023-02-11T19:50:37.337Z,1.60
2023-02-11T19:53:06.791Z,1.83
2023-02-11T19:55:39.036Z,2.00
2023-02-11T19:58:07.263Z,1.67
2023-02-11T20:00:36.376Z,1.80
2023-02-11T20:03:07.248Z,2.00
2023-02-11T20:05:40.221Z,1.43
2023-02-11T20:08:11.368Z,2.13
2023-02-11T20:10:39.123Z,3.15
2023-02-11T20:13:06.778Z,1.90
2023-02-11T20:15:35.331Z,1.70
2023-02-11T20:18:04.721Z,2.30
2023-02-11T20:20:32.994Z,2.83
2023-02-11T20:23:23.180Z,3.50
2023-02-11T20:25:53.983Z,2.35
2023-02-11T20:28:26.394Z,2.20
2023-02-11T20:30:58.243Z,2.90
2023-02-11T20:33:28.633Z,3.00
2023-02-11T20:35:57.278Z,3.25
2023-02-11T20:38:25.509Z,2.50
2023-02-11T20:40:53.416Z,2.25
2023-02-11T20:43:24.908Z,3.35
2023-02-11T20:45:53.033Z,3.13
2023-02-11T20:48:24.514Z,4.07
2023-02-11T20:50:52.784Z,2.95
2023-02-11T20:53:21.388Z,3.22
2023-02-11T20:55:52.005Z,3.97
2023-02-11T20:58:20.016Z,3.95
2023-02-11T21:00:48.180Z,4.28
2023-02-11T21:03:15.893Z,4.47
2023-02-11T21:05:43.674Z,3.17
2023-02-11T21:08:11.713Z,3.67
2023-02-11T21:10:39.563Z,4.27
2023-02-11T21:13:07.440Z,4.53
2023-02-11T21:15:35.211Z,5.05
2023-02-11T21:18:03.075Z,3.42
2023-02-11T21:20:30.819Z,4.20
2023-02-11T21:22:58.644Z,3.92
2023-02-11T21:25:26.577Z,4.03
2023-02-11T21:27:54.295Z,2.97
2023-02-11T21:30:22.154Z,3.25
2023-02-11T21:32:49.863Z,4.75
2023-02-11T21:35:17.693Z,3.23
2023-02-11T21:37:45.589Z,3.40
2023-02-11T21:40:15.072Z,4.05
2023-02-11T21:42:42.846Z,2.30
2023-02-11T21:45:10.755Z,2.77
2023-02-11T21:47:38.544Z,3.20
2023-02-11T21:50:06.498Z,3.00
2023-02-11T21:52:34.280Z,3.00
2023-02-11T21:55:01.976Z,4.50
2023-02-11T21:57:30.385Z,4.22
2023-02-11T21:59:58.130Z,4.57
2023-02-11T22:02:25.894Z,4.18
2023-02-11T22:04:53.719Z,4.10
2023-02-11T22:07:22.821Z,3.40
2023-02-11T22:09:52.320Z,3.80
2023-02-11T22:12:19.972Z,3.13
2023-02-11T22:14:47.696Z,3.58
2023-02-11T22:17:16.760Z,2.90
2023-02-11T22:19:47.641Z,3.60
2023-02-11T22:22:19.032Z,2.92
2023-02-11T22:24:47.004Z,3.40
2023-02-11T22:27:15.033Z,3.25
2023-02-11T22:29:42.857Z,3.72
2023-02-11T22:32:11.005Z,3.85
2023-02-11T22:34:38.695Z,4.30
2023-02-11T22:37:07.627Z,3.83
2023-02-11T22:39:35.354Z,4.63
2023-02-11T22:42:03.150Z,3.83
2023-02-11T22:44:30.856Z,4.25
2023-02-11T22:46:58.647Z,4.72
2023-02-11T22:49:26.492Z,3.73
2023-02-11T22:51:54.136Z,4.43
2023-02-11T22:54:21.901Z,3.58
2023-02-11T22:56:50.923Z,3.67
2023-02-11T22:59:18.876Z,4.50
2023-02-11T23:01:46.823Z,3.60
2023-02-11T23:04:15.600Z,3.30
2023-02-11T23:06:43.391Z,3.70
2023-02-11T23:09:12.614Z,3.53
2023-02-11T23:11:41.261Z,3.50
2023-02-11T23:14:10.343Z,3.47
2023-02-11T23:16:38.118Z,2.88
2023-02-11T23:19:06.890Z,3.70
2023-02-11T23:21:35.058Z,3.58
2023-02-11T23:24:03.519Z,3.60
2023-02-11T23:26:31.283Z,3.15
2023-02-11T23:28:59.334Z,4.15
2023-02-11T23:31:35.506Z,2.93
2023-02-11T23:34:03.257Z,2.75
2023-02-11T23:36:31.161Z,3.08
2023-02-11T23:38:58.955Z,3.30
2023-02-11T23:41:26.782Z,3.20
2023-02-11T23:43:55.191Z,3.97
2023-02-11T23:46:23.383Z,3.58
2023-02-11T23:48:51.692Z,3.10
2023-02-11T23:51:22.479Z,2.83
2023-02-11T23:53:50.470Z,2.78
2023-02-11T23:56:19.439Z,3.57
2023-02-11T23:58:50.212Z,3.10
